メインページ
METAR-TAF:

METAR-TAF

空港 :

Castlegar, ブリティッシュコロンビア州, カナダ

緯度: 49-18N, 経度: 117-38W, 海抜: 495m

現時点の気象観測

当レポートは5時間28分前の01:00(UTC)に作成
の風 8kt
気温 1°C
湿度 80%
気圧 1014 hPa
視程: 24.1km
高度3400ftの雲は散在している
高度11000ftの千切れ雲あり

METAR: CYCG 150100Z 18008KT 15SM SCT034 BKN110 01/M02 A2993 RMK SC4AC2 LAST STFD OBS/NEXT 151400Z SLP155

時間: 22:28 (06:28 UTC)

予報

当レポートは11時間50分前の18:38(UTC)に作成
予報は14日の 19時(UTC)から 15日の 01時(UTC)まで有効
変向風 3kt
視程: 10km
高度2000ftの雲は散在している
高度4000ftの曇り
14日の 19時(UTC)から 14日の 20時(UTC)まで一時的に
視程: 4.8km
高度1000ftの雲は散在している
高度1500ftの千切れ雲あり
弱いにわか雨, 雪, 靄
14日の 2000時(UTC)から
の風 6kt
視程: 10km
高度2000ftの雲は散在している
高度4000ftの千切れ雲あり
14日の 20時(UTC)から 15日の 01時(UTC)まで一時的に
高度2000ftの千切れ雲あり

TAF: CYCG 141838Z 1419/1501 VRB03KT P6SM SCT020 OVC040 TEMPO 1419/1420 3SM -SHRASN BR SCT010 BKN015 FM142000 19006KT P6SM SCT020 BKN040 TEMPO 1420/1501 BKN020 RMK NXT FCST WILL BE ISSUED AT 151545Z

4,000以上の空港の気象観測と天気予報(METAR報とTAF報)

利用可能な観測所は地図上に黄色い丸と赤い丸で示す。

丸の上にカーソルを重ねると観測所名を参照できる。

次にクリックすると気象観測と天気予報を参照できる。

マップの切り替え:黒色「×」印の緑ボタンをクリックして拡大、「-」印の緑ボタンをクリックして縮小、緑色の三角印をクリックして隣りの地図に切り替え


METAR-TAF: